createdAt,value
2022-08-27T00:01:22.262Z,54.34
2022-08-27T00:03:50.240Z,54.47
2022-08-27T00:06:21.597Z,54.63
2022-08-27T00:08:49.061Z,54.70
2022-08-27T00:11:17.883Z,54.32
2022-08-27T00:13:46.529Z,54.58
2022-08-27T00:16:16.187Z,54.92
2022-08-27T00:18:46.629Z,55.17
2022-08-27T00:21:16.650Z,55.35
2022-08-27T00:23:43.887Z,55.47
2022-08-27T00:26:11.778Z,55.41
2022-08-27T00:28:39.866Z,55.46
2022-08-27T00:31:06.805Z,55.44
2022-08-27T00:33:33.972Z,55.66
2022-08-27T00:36:02.323Z,55.68
2022-08-27T00:38:29.928Z,55.86
2022-08-27T00:40:57.062Z,55.87
2022-08-27T00:43:31.317Z,56.10
2022-08-27T00:46:11.625Z,55.95
2022-08-27T00:48:38.773Z,56.14
2022-08-27T00:51:06.615Z,56.18
2022-08-27T00:53:36.205Z,56.22
2022-08-27T00:56:13.334Z,56.45
2022-08-27T00:58:45.609Z,56.51
2022-08-27T01:01:16.549Z,56.69
2022-08-27T01:03:47.756Z,56.54
2022-08-27T01:06:17.205Z,56.66
2022-08-27T01:08:50.801Z,56.95
2022-08-27T01:11:18.968Z,56.93
2022-08-27T01:13:59.626Z,56.54
2022-08-27T01:16:35.925Z,55.75
2022-08-27T01:19:14.573Z,55.49
2022-08-27T01:21:51.411Z,55.69
2022-08-27T01:24:35.854Z,55.19
2022-08-27T01:27:08.081Z,55.23
2022-08-27T01:29:41.477Z,54.75
2022-08-27T01:32:10.668Z,55.00
2022-08-27T01:34:38.362Z,55.30
2022-08-27T01:37:06.775Z,54.95
2022-08-27T01:39:39.674Z,54.91
2022-08-27T01:42:24.851Z,54.62
2022-08-27T01:44:58.825Z,54.83
2022-08-27T01:47:30.559Z,54.89
2022-08-27T01:50:00.458Z,55.00
2022-08-27T01:52:30.401Z,55.46
2022-08-27T01:54:58.416Z,55.15
2022-08-27T01:57:26.488Z,55.07
2022-08-27T01:59:57.052Z,55.15
2022-08-27T02:02:24.260Z,55.14
2022-08-27T02:04:52.294Z,55.20
2022-08-27T02:07:19.445Z,54.99
2022-08-27T02:09:46.427Z,54.86
2022-08-27T02:12:13.797Z,55.13
2022-08-27T02:14:40.791Z,55.04
2022-08-27T02:17:07.878Z,54.99
2022-08-27T02:19:35.079Z,54.70
2022-08-27T02:22:01.978Z,54.82
2022-08-27T02:24:29.378Z,55.06
2022-08-27T02:26:57.140Z,55.07
2022-08-27T02:29:25.506Z,54.70
2022-08-27T02:31:52.676Z,54.55
2022-08-27T02:34:19.590Z,54.61
2022-08-27T02:36:47.825Z,54.63
2022-08-27T02:39:14.836Z,54.58
2022-08-27T02:41:41.639Z,54.71
2022-08-27T02:44:10.410Z,54.71
2022-08-27T02:46:41.859Z,54.54
2022-08-27T02:49:09.726Z,54.63
2022-08-27T02:51:37.779Z,54.67
2022-08-27T02:54:06.243Z,54.60
2022-08-27T02:56:38.068Z,54.34
2022-08-27T02:59:05.820Z,54.30
2022-08-27T03:01:32.838Z,54.02
2022-08-27T03:04:01.125Z,54.12
2022-08-27T03:06:28.825Z,53.82
2022-08-27T03:08:55.751Z,53.78
2022-08-27T03:11:23.604Z,53.59
2022-08-27T03:13:51.535Z,53.66
2022-08-27T03:16:20.504Z,53.57
2022-08-27T03:18:47.497Z,53.63
2022-08-27T03:21:19.661Z,53.38
2022-08-27T03:23:48.715Z,52.95
2022-08-27T03:26:16.169Z,52.42
2022-08-27T03:28:43.671Z,52.38
2022-08-27T03:31:20.658Z,51.67
2022-08-27T03:33:47.872Z,50.63
2022-08-27T03:36:15.400Z,48.92
2022-08-27T03:38:42.401Z,48.94
2022-08-27T03:41:10.007Z,48.53
2022-08-27T03:43:37.278Z,47.87
2022-08-27T03:46:04.393Z,47.98
2022-08-27T03:48:32.111Z,48.36
2022-08-27T03:50:59.566Z,48.26
2022-08-27T03:53:26.709Z,48.19
2022-08-27T03:55:53.998Z,48.12
2022-08-27T03:58:21.189Z,47.52
2022-08-27T04:00:48.612Z,47.95
2022-08-27T04:03:16.025Z,47.66
2022-08-27T04:05:45.300Z,47.08
2022-08-27T04:08:13.576Z,46.06
2022-08-27T04:10:41.537Z,45.75
2022-08-27T04:13:08.599Z,45.55
2022-08-27T04:15:40.542Z,45.42
2022-08-27T04:18:07.759Z,45.18
2022-08-27T04:20:36.001Z,45.06
2022-08-27T04:23:05.222Z,44.71
2022-08-27T04:25:32.811Z,44.67
2022-08-27T04:28:00.166Z,44.68
2022-08-27T04:30:27.308Z,44.60
2022-08-27T04:32:54.489Z,44.61
2022-08-27T04:35:22.016Z,44.27
2022-08-27T04:37:48.927Z,44.08
2022-08-27T04:40:15.927Z,44.18
2022-08-27T04:42:44.739Z,44.62
2022-08-27T04:45:12.078Z,44.47
2022-08-27T04:47:38.931Z,44.20
2022-08-27T04:50:07.092Z,43.99
2022-08-27T04:52:35.220Z,43.47
2022-08-27T04:55:09.413Z,43.26
2022-08-27T04:57:38.124Z,43.11
2022-08-27T05:00:07.356Z,42.95
2022-08-27T05:02:34.624Z,42.97
2022-08-27T05:05:01.888Z,42.82
2022-08-27T05:07:30.057Z,42.55
2022-08-27T05:09:57.526Z,42.50
2022-08-27T05:12:29.348Z,42.26
2022-08-27T05:14:56.341Z,42.22
2022-08-27T05:17:23.662Z,42.03
2022-08-27T05:19:50.697Z,42.06
2022-08-27T05:22:17.547Z,42.58
2022-08-27T05:24:49.564Z,42.27
2022-08-27T05:27:17.867Z,42.26
2022-08-27T05:29:44.767Z,41.89
2022-08-27T05:32:12.126Z,41.69
2022-08-27T05:34:39.120Z,41.44
2022-08-27T05:37:06.452Z,41.24
2022-08-27T05:39:33.634Z,40.88
2022-08-27T05:42:00.572Z,40.78
2022-08-27T05:44:42.711Z,40.07
2022-08-27T05:47:10.471Z,39.44
2022-08-27T05:49:37.831Z,39.10
2022-08-27T05:52:08.895Z,39.15
2022-08-27T05:54:36.801Z,38.73
2022-08-27T05:57:03.851Z,38.66
2022-08-27T05:59:49.152Z,38.23
2022-08-27T06:02:16.516Z,38.68
2022-08-27T06:04:43.356Z,38.35
2022-08-27T06:07:11.099Z,37.41
2022-08-27T06:09:38.936Z,37.39
2022-08-27T06:12:06.630Z,37.26
2022-08-27T06:14:35.500Z,36.98
2022-08-27T06:17:03.522Z,37.23
2022-08-27T06:19:30.715Z,36.12
2022-08-27T06:22:09.589Z,35.98
2022-08-27T06:24:42.494Z,35.13
2022-08-27T06:27:12.777Z,35.13
2022-08-27T06:29:41.023Z,34.40
2022-08-27T06:32:09.647Z,34.79
2022-08-27T06:34:37.950Z,34.61
2022-08-27T06:37:05.930Z,34.81
2022-08-27T06:39:32.934Z,34.36
2022-08-27T06:41:59.964Z,34.21
2022-08-27T06:44:32.999Z,34.34
2022-08-27T06:47:00.040Z,33.60
2022-08-27T06:49:27.458Z,33.76
2022-08-27T06:51:54.943Z,34.06
2022-08-27T06:54:22.188Z,34.15
2022-08-27T06:56:50.217Z,34.25
2022-08-27T06:59:20.819Z,33.59
2022-08-27T07:01:51.472Z,33.46
2022-08-27T07:04:22.392Z,33.41
2022-08-27T07:06:54.952Z,33.63
2022-08-27T07:09:24.564Z,33.38
2022-08-27T07:11:51.510Z,33.41
2022-08-27T07:14:18.514Z,33.29
2022-08-27T07:16:45.751Z,32.89
2022-08-27T07:19:15.249Z,31.93
2022-08-27T07:21:44.306Z,32.08
2022-08-27T07:24:12.644Z,31.45
2022-08-27T07:26:43.114Z,31.02
2022-08-27T07:29:12.912Z,30.96
2022-08-27T07:31:40.034Z,30.44
2022-08-27T07:34:07.642Z,30.34
2022-08-27T07:36:36.011Z,30.52
2022-08-27T07:39:03.655Z,30.81
2022-08-27T07:41:31.963Z,31.00
2022-08-27T07:44:19.231Z,31.02
2022-08-27T07:46:48.696Z,30.62
2022-08-27T07:49:19.211Z,30.70
2022-08-27T07:51:46.910Z,30.45
2022-08-27T07:54:14.451Z,30.55
2022-08-27T07:56:41.866Z,30.18
2022-08-27T07:59:09.374Z,30.46
2022-08-27T08:01:36.860Z,30.31
2022-08-27T08:04:04.101Z,30.46
2022-08-27T08:06:31.300Z,29.55
2022-08-27T08:08:59.979Z,29.32
2022-08-27T08:11:27.030Z,29.40
2022-08-27T08:13:54.015Z,28.80
2022-08-27T08:16:28.284Z,28.60
2022-08-27T08:19:00.354Z,27.74
2022-08-27T08:21:27.734Z,27.94
2022-08-27T08:23:54.846Z,27.93
2022-08-27T08:26:23.280Z,27.87
2022-08-27T08:28:50.235Z,27.43
2022-08-27T08:31:17.114Z,27.21
2022-08-27T08:33:44.452Z,27.46
2022-08-27T08:36:13.744Z,26.95
2022-08-27T08:38:41.794Z,26.67
2022-08-27T08:41:40.346Z,26.37
2022-08-27T08:44:26.295Z,25.85
2022-08-27T08:46:59.634Z,25.58
2022-08-27T08:49:32.399Z,25.09
2022-08-27T08:52:19.248Z,24.60
2022-08-27T08:55:07.557Z,23.89
2022-08-27T08:57:43.837Z,23.49
2022-08-27T09:00:13.977Z,23.07
2022-08-27T09:02:51.219Z,23.64
2022-08-27T09:05:18.592Z,23.34
2022-08-27T09:08:15.154Z,22.87
2022-08-27T09:10:56.618Z,22.75
2022-08-27T09:13:58.745Z,23.37
2022-08-27T09:16:26.152Z,23.31
2022-08-27T09:18:53.874Z,22.49
2022-08-27T09:21:27.762Z,22.83
2022-08-27T09:24:05.409Z,22.81
2022-08-27T09:26:37.238Z,22.19
2022-08-27T09:29:17.207Z,22.66
2022-08-27T09:31:54.130Z,22.35
2022-08-27T09:34:22.556Z,22.20
2022-08-27T09:37:08.284Z,21.74
2022-08-27T09:39:50.294Z,21.88
2022-08-27T09:42:26.650Z,21.74
2022-08-27T09:44:54.981Z,21.40
2022-08-27T09:47:21.972Z,21.13
2022-08-27T09:49:49.364Z,21.38
2022-08-27T09:52:38.049Z,21.99
2022-08-27T09:55:07.272Z,21.25
2022-08-27T09:57:38.583Z,22.07
2022-08-27T10:00:14.075Z,21.65
2022-08-27T10:02:56.164Z,21.39
2022-08-27T10:05:30.405Z,21.34
2022-08-27T10:08:35.398Z,21.16
2022-08-27T10:11:07.421Z,21.14
2022-08-27T10:13:46.885Z,20.86
2022-08-27T10:16:36.672Z,20.58
2022-08-27T10:19:16.872Z,20.83
2022-08-27T10:21:51.147Z,20.63
2022-08-27T10:24:33.370Z,20.70
2022-08-27T10:27:06.058Z,20.79
2022-08-27T10:30:10.297Z,20.83
2022-08-27T10:32:45.829Z,20.96
2022-08-27T10:35:26.734Z,21.09
2022-08-27T10:38:30.291Z,20.90
2022-08-27T10:41:15.734Z,21.17
2022-08-27T10:44:13.672Z,21.39
2022-08-27T10:47:13.168Z,21.08
2022-08-27T10:50:03.862Z,20.98
2022-08-27T10:52:51.610Z,20.58
2022-08-27T10:55:24.654Z,20.54
2022-08-27T10:58:04.622Z,20.80
2022-08-27T11:00:56.382Z,20.60
2022-08-27T11:03:32.181Z,20.35
2022-08-27T11:06:14.382Z,20.53
2022-08-27T11:08:50.122Z,20.62
2022-08-27T11:12:12.766Z,20.62
2022-08-27T11:14:47.893Z,20.85
2022-08-27T11:17:25.286Z,20.90
2022-08-27T11:19:59.750Z,20.56
2022-08-27T11:23:00.860Z,20.68
2022-08-27T11:25:36.014Z,20.46
2022-08-27T11:28:05.557Z,20.73
2022-08-27T11:30:42.204Z,20.81
2022-08-27T11:33:35.545Z,20.40
2022-08-27T11:36:08.763Z,20.10
2022-08-27T11:39:02.948Z,20.00
2022-08-27T11:42:04.257Z,19.85
2022-08-27T11:44:31.591Z,19.68
2022-08-27T11:47:13.795Z,19.82
2022-08-27T11:49:48.039Z,19.77
2022-08-27T11:52:36.365Z,19.58
2022-08-27T11:55:21.619Z,19.33
2022-08-27T11:58:07.585Z,19.56
2022-08-27T12:00:38.669Z,19.33
2022-08-27T12:03:23.969Z,19.26
2022-08-27T12:05:54.074Z,19.44
2022-08-27T12:08:24.849Z,19.69
2022-08-27T12:11:08.443Z,19.75
2022-08-27T12:13:53.249Z,19.68
2022-08-27T12:16:32.354Z,19.63
2022-08-27T12:19:11.130Z,19.39
2022-08-27T12:22:10.704Z,19.62
2022-08-27T12:24:43.557Z,19.67
2022-08-27T12:27:26.489Z,19.81
2022-08-27T12:30:00.644Z,19.51
2022-08-27T12:32:33.241Z,19.90
2022-08-27T12:35:23.640Z,20.20
2022-08-27T12:38:04.394Z,20.34
2022-08-27T12:41:03.906Z,20.53
2022-08-27T12:43:35.127Z,20.29
2022-08-27T12:46:07.656Z,20.21
2022-08-27T12:48:40.533Z,20.57
2022-08-27T12:51:13.784Z,20.27
2022-08-27T12:53:52.917Z,20.76
2022-08-27T12:56:32.078Z,20.97
2022-08-27T12:59:31.923Z,20.41
2022-08-27T13:02:05.149Z,20.20
2022-08-27T13:04:34.338Z,20.28
2022-08-27T13:07:01.104Z,20.56
2022-08-27T13:09:36.888Z,19.85
2022-08-27T13:12:14.777Z,20.27
2022-08-27T13:14:42.064Z,20.11
2022-08-27T13:17:15.893Z,20.41
2022-08-27T13:19:51.456Z,20.24
2022-08-27T13:22:29.193Z,20.01
2022-08-27T13:24:57.127Z,19.94
2022-08-27T13:27:31.745Z,19.60
2022-08-27T13:30:03.060Z,19.35
2022-08-27T13:32:31.065Z,19.66
2022-08-27T13:35:00.395Z,19.13
2022-08-27T13:37:37.900Z,19.19
2022-08-27T13:40:06.364Z,19.19
2022-08-27T13:42:33.951Z,19.71
2022-08-27T13:45:07.942Z,19.45
2022-08-27T13:47:49.175Z,19.63
2022-08-27T13:50:28.518Z,19.70
2022-08-27T13:53:31.422Z,19.85
2022-08-27T13:55:59.454Z,19.71
2022-08-27T13:58:31.183Z,19.68
2022-08-27T14:01:29.066Z,19.98
2022-08-27T14:04:04.469Z,19.94
2022-08-27T14:06:44.188Z,19.51
2022-08-27T14:09:28.303Z,19.89
2022-08-27T14:12:10.927Z,19.83
2022-08-27T14:14:41.352Z,19.75
2022-08-27T14:17:26.793Z,19.87
2022-08-27T14:20:01.394Z,20.13
2022-08-27T14:22:28.736Z,20.28
2022-08-27T14:24:55.617Z,20.49
2022-08-27T14:27:22.875Z,20.57
2022-08-27T14:29:52.133Z,20.64
2022-08-27T14:32:19.503Z,21.00
2022-08-27T14:34:46.794Z,21.19
2022-08-27T14:37:14.803Z,21.23
2022-08-27T14:39:43.571Z,21.47
2022-08-27T14:42:12.778Z,21.41
2022-08-27T14:44:40.092Z,21.10
2022-08-27T14:47:09.643Z,21.51
2022-08-27T14:49:40.330Z,21.28
2022-08-27T14:52:09.564Z,21.32
2022-08-27T14:54:36.692Z,21.73
2022-08-27T14:57:05.441Z,21.99
2022-08-27T14:59:33.538Z,22.25
2022-08-27T15:02:02.684Z,22.07
2022-08-27T15:04:30.851Z,22.84
2022-08-27T15:06:58.302Z,22.68
2022-08-27T15:09:25.312Z,23.13
2022-08-27T15:11:53.304Z,23.31
2022-08-27T15:14:31.582Z,23.01
2022-08-27T15:17:02.651Z,23.63
2022-08-27T15:19:49.430Z,23.85
2022-08-27T15:22:20.498Z,23.93
2022-08-27T15:24:58.166Z,24.03
2022-08-27T15:27:38.231Z,24.10
2022-08-27T15:30:11.793Z,24.53
2022-08-27T15:32:45.207Z,24.39
2022-08-27T15:35:16.264Z,24.82
2022-08-27T15:37:44.533Z,25.04
2022-08-27T15:40:14.712Z,24.65
2022-08-27T15:42:42.044Z,24.92
2022-08-27T15:45:11.554Z,25.37
2022-08-27T15:47:39.281Z,25.17
2022-08-27T15:50:07.342Z,25.54
2022-08-27T15:52:40.929Z,25.52
2022-08-27T15:55:40.078Z,25.99
2022-08-27T15:58:08.885Z,26.14
2022-08-27T16:00:37.454Z,25.91
2022-08-27T16:03:08.666Z,25.95
2022-08-27T16:05:38.117Z,25.92
2022-08-27T16:08:05.597Z,25.94
2022-08-27T16:10:33.692Z,26.03
2022-08-27T16:13:00.618Z,25.73
2022-08-27T16:15:28.297Z,26.29
2022-08-27T16:17:59.332Z,26.27
2022-08-27T16:20:27.156Z,26.41
2022-08-27T16:22:54.487Z,26.42
2022-08-27T16:25:23.584Z,26.42
2022-08-27T16:27:51.626Z,26.54
2022-08-27T16:30:20.209Z,26.83
2022-08-27T16:32:49.405Z,27.11
2022-08-27T16:35:16.701Z,27.04
2022-08-27T16:37:44.316Z,27.75
2022-08-27T16:40:13.484Z,27.37
2022-08-27T16:42:44.432Z,27.76
2022-08-27T16:45:14.213Z,27.69
2022-08-27T16:48:01.316Z,27.80
2022-08-27T16:50:34.893Z,28.11
2022-08-27T16:53:07.632Z,28.36
2022-08-27T16:55:35.819Z,28.29
2022-08-27T16:58:02.634Z,28.38
2022-08-27T17:00:30.179Z,28.63
2022-08-27T17:03:05.467Z,28.61
2022-08-27T17:05:34.914Z,28.67
2022-08-27T17:08:02.944Z,29.01
2022-08-27T17:10:35.675Z,29.37
2022-08-27T17:13:02.775Z,29.40
2022-08-27T17:15:29.827Z,29.69
2022-08-27T17:17:58.071Z,29.86
2022-08-27T17:20:25.757Z,29.12
2022-08-27T17:22:57.089Z,29.07
2022-08-27T17:25:30.138Z,29.32
2022-08-27T17:28:00.199Z,29.61
2022-08-27T17:30:28.194Z,29.49
2022-08-27T17:32:55.189Z,29.77
2022-08-27T17:35:22.069Z,29.76
2022-08-27T17:37:49.181Z,29.45
2022-08-27T17:40:16.040Z,29.89
2022-08-27T17:42:43.006Z,30.11
2022-08-27T17:45:10.851Z,29.99
2022-08-27T17:47:37.926Z,30.20
2022-08-27T17:50:05.827Z,30.02
2022-08-27T17:52:34.430Z,30.05
2022-08-27T17:55:01.313Z,29.63
2022-08-27T17:57:40.495Z,30.38
2022-08-27T18:00:11.217Z,30.38
2022-08-27T18:02:44.437Z,30.41
2022-08-27T18:05:13.916Z,30.96
2022-08-27T18:07:41.544Z,30.77
2022-08-27T18:10:10.160Z,30.96
2022-08-27T18:12:40.997Z,31.00
2022-08-27T18:15:10.081Z,30.74
2022-08-27T18:17:42.573Z,31.02
2022-08-27T18:20:13.265Z,30.90
2022-08-27T18:22:41.120Z,31.01
2022-08-27T18:25:17.983Z,30.90
2022-08-27T18:27:47.318Z,30.98
2022-08-27T18:30:14.710Z,31.03
2022-08-27T18:32:43.812Z,31.92
2022-08-27T18:35:17.789Z,31.02
2022-08-27T18:37:45.482Z,30.81
2022-08-27T18:40:14.517Z,31.70
2022-08-27T18:42:42.104Z,31.56
2022-08-27T18:45:13.293Z,32.04
2022-08-27T18:47:40.691Z,31.85
2022-08-27T18:50:09.793Z,31.49
2022-08-27T18:52:46.735Z,30.97
2022-08-27T18:55:17.614Z,31.53
2022-08-27T18:57:44.590Z,31.38
2022-08-27T19:00:14.571Z,31.34
2022-08-27T19:02:43.001Z,31.14
2022-08-27T19:05:11.392Z,31.34
2022-08-27T19:07:38.701Z,31.68
2022-08-27T19:10:07.885Z,31.16
2022-08-27T19:12:34.856Z,31.55
2022-08-27T19:15:04.430Z,31.72
2022-08-27T19:17:37.948Z,31.85
2022-08-27T19:20:06.588Z,31.61
2022-08-27T19:22:33.945Z,31.92
2022-08-27T19:25:01.165Z,32.01
2022-08-27T19:27:30.024Z,32.28
2022-08-27T19:29:57.235Z,32.68
2022-08-27T19:32:24.232Z,33.74
2022-08-27T19:34:51.330Z,33.05
2022-08-27T19:37:25.498Z,33.28
2022-08-27T19:39:52.960Z,33.44
2022-08-27T19:42:20.045Z,33.40
2022-08-27T19:44:47.458Z,33.72
2022-08-27T19:47:21.395Z,34.47
2022-08-27T19:49:49.828Z,33.89
2022-08-27T19:52:16.711Z,33.92
2022-08-27T19:55:09.789Z,34.30
2022-08-27T19:57:30.903Z,34.47
2022-08-27T19:59:57.909Z,34.60
2022-08-27T20:02:25.043Z,34.75
2022-08-27T20:05:16.297Z,34.67
2022-08-27T20:07:39.420Z,34.92
2022-08-27T20:10:08.182Z,35.32
2022-08-27T20:12:36.995Z,35.89
2022-08-27T20:15:06.353Z,35.75
2022-08-27T20:17:35.549Z,36.00
2022-08-27T20:20:03.151Z,36.28
2022-08-27T20:22:30.418Z,36.37
2022-08-27T20:24:57.553Z,36.01
2022-08-27T20:27:25.145Z,36.23
2022-08-27T20:29:54.670Z,36.47
2022-08-27T20:32:24.796Z,35.90
2022-08-27T20:34:55.253Z,35.90
2022-08-27T20:37:22.590Z,35.32
2022-08-27T20:39:50.572Z,35.45
2022-08-27T20:42:19.785Z,36.40
2022-08-27T20:44:47.361Z,35.95
2022-08-27T20:47:16.154Z,36.23
2022-08-27T20:49:44.809Z,36.24
2022-08-27T20:52:13.114Z,36.53
2022-08-27T20:54:41.188Z,36.58
2022-08-27T20:57:11.546Z,36.57
2022-08-27T20:59:59.160Z,36.95
2022-08-27T21:02:30.093Z,36.91
2022-08-27T21:04:58.041Z,36.65
2022-08-27T21:07:25.741Z,37.39
2022-08-27T21:09:57.210Z,37.18
2022-08-27T21:12:26.745Z,37.06
2022-08-27T21:14:58.057Z,37.29
2022-08-27T21:17:33.785Z,37.56
2022-08-27T21:20:01.021Z,37.86
2022-08-27T21:22:28.549Z,37.75
2022-08-27T21:24:55.623Z,37.71
2022-08-27T21:27:25.439Z,37.55
2022-08-27T21:29:52.637Z,37.51
2022-08-27T21:32:19.854Z,37.38
2022-08-27T21:34:47.143Z,37.63
2022-08-27T21:37:17.398Z,37.52
2022-08-27T21:39:44.723Z,37.34
2022-08-27T21:42:12.926Z,37.23
2022-08-27T21:44:40.356Z,37.10
2022-08-27T21:47:08.050Z,36.87
2022-08-27T21:49:35.655Z,37.16
2022-08-27T21:52:06.078Z,37.29
2022-08-27T21:54:38.012Z,37.25
2022-08-27T21:57:06.420Z,37.34
2022-08-27T21:59:40.327Z,36.96
2022-08-27T22:02:28.873Z,36.88
2022-08-27T22:04:56.817Z,37.23
2022-08-27T22:07:24.398Z,37.21
2022-08-27T22:09:51.384Z,37.15
2022-08-27T22:12:18.265Z,37.34
2022-08-27T22:14:45.475Z,37.18
2022-08-27T22:17:15.889Z,37.27
2022-08-27T22:19:43.169Z,37.53
2022-08-27T22:22:10.208Z,37.07
2022-08-27T22:24:37.609Z,37.24
2022-08-27T22:27:07.839Z,37.34
2022-08-27T22:29:34.877Z,37.45
2022-08-27T22:32:01.686Z,37.36
2022-08-27T22:34:28.881Z,37.83
2022-08-27T22:36:55.667Z,37.84
2022-08-27T22:39:23.078Z,37.55
2022-08-27T22:41:51.198Z,37.71
2022-08-27T22:44:18.292Z,38.02
2022-08-27T22:46:45.604Z,38.43
2022-08-27T22:49:13.017Z,38.66
2022-08-27T22:51:39.963Z,38.63
2022-08-27T22:54:08.012Z,38.51
2022-08-27T22:56:35.863Z,38.98
2022-08-27T22:59:02.886Z,39.13
2022-08-27T23:01:36.451Z,39.42
2022-08-27T23:04:04.557Z,39.43
2022-08-27T23:06:31.911Z,39.36
2022-08-27T23:08:59.033Z,39.69
2022-08-27T23:11:25.952Z,39.88
2022-08-27T23:13:53.253Z,40.16
2022-08-27T23:16:21.010Z,40.25
2022-08-27T23:18:47.886Z,40.27
2022-08-27T23:21:14.821Z,40.21
2022-08-27T23:23:41.885Z,40.27
2022-08-27T23:26:27.621Z,40.28
2022-08-27T23:28:55.015Z,40.41
2022-08-27T23:31:22.714Z,40.50
2022-08-27T23:33:53.900Z,40.83
2022-08-27T23:36:21.391Z,40.73
2022-08-27T23:38:48.250Z,40.92
2022-08-27T23:41:18.672Z,41.26
2022-08-27T23:43:48.042Z,41.35
2022-08-27T23:46:14.966Z,41.55
2022-08-27T23:48:41.816Z,41.85
2022-08-27T23:51:09.736Z,41.84
2022-08-27T23:53:37.650Z,42.16
2022-08-27T23:56:05.468Z,42.32
2022-08-27T23:58:32.860Z,42.57
